Time;durP1;ratioP1;P1;durP2;ratioP2;P2;SDS_P1;SDS_P2;PMS_P1;PMS_P2;Temp;Humidity;BMP_temperature;BMP_pressure;BME280_temperature;BME280_humidity;BME280_pressure;Samples;Min_cycle;Max_cycle;Signal;HPM_P1;HPM_P2
2021/05/08 00:00:06;;;;;;;6.47;2.08;;;;;;;;;;5025924;28;20092;-43
2021/05/08 00:02:32;;;;;;;1.92;1.63;;;;;;;;;;5029451;28;20413;-41
2021/05/08 00:04:58;;;;;;;3.47;1.75;;;;;;;;;;5026457;28;20402;-44
2021/05/08 00:07:25;;;;;;;5.90;1.73;;;;;;;;;;5031111;28;20053;-42
2021/05/08 00:09:51;;;;;;;3.13;1.58;;;;;;;;;;5031196;28;20038;-44
2021/05/08 00:12:18;;;;;;;3.33;2.10;;;;;;;;;;5028129;28;20045;-44
2021/05/08 00:14:45;;;;;;;4.78;1.60;;;;;;;;;;5026847;28;20113;-42
2021/05/08 00:17:11;;;;;;;2.28;1.20;;;;;;;;;;5016098;28;20022;-42
2021/05/08 00:19:38;;;;;;;6.53;1.70;;;;;;;;;;5027893;28;20041;-46
2021/05/08 00:22:04;;;;;;;3.63;1.40;;;;;;;;;;5029219;28;20108;-43
2021/05/08 00:24:31;;;;;;;3.13;1.48;;;;;;;;;;5032783;28;20091;-47
2021/05/08 00:26:57;;;;;;;1.92;1.77;;;;;;;;;;5029012;28;20052;-45
2021/05/08 00:29:24;;;;;;;2.03;1.75;;;;;;;;;;5031211;28;20049;-45
2021/05/08 00:31:50;;;;;;;2.38;2.00;;;;;;;;;;5029787;28;20097;-42
2021/05/08 00:34:16;;;;;;;2.10;2.00;;;;;;;;;;5029859;28;20038;-42
2021/05/08 00:36:42;;;;;;;1.65;1.55;;;;;;;;;;5031412;28;20494;-43
2021/05/08 00:39:09;;;;;;;2.45;1.58;;;;;;;;;;5026190;28;20064;-42
2021/05/08 00:41:36;;;;;;;4.90;1.40;;;;;;;;;;5029633;28;20117;-45
2021/05/08 00:44:02;;;;;;;3.03;1.50;;;;;;;;;;5028776;28;20042;-42
2021/05/08 00:46:28;;;;;;;2.45;1.60;;;;;;;;;;5026306;28;20065;-42
2021/05/08 00:48:55;;;;;;;2.58;1.55;;;;;;;;;;5019639;28;20088;-43
2021/05/08 00:51:21;;;;;;;1.65;1.50;;;;;;;;;;5030260;28;20049;-44
2021/05/08 00:53:48;;;;;;;3.20;1.85;;;;;;;;;;5030577;28;20041;-44
2021/05/08 00:56:14;;;;;;;4.30;1.25;;;;;;;;;;5031164;28;20042;-42
2021/05/08 00:58:41;;;;;;;3.10;1.30;;;;;;;;;;5025438;28;20355;-42
2021/05/08 01:01:07;;;;;;;1.33;1.23;;;;;;;;;;5013971;28;20049;-43
2021/05/08 01:03:34;;;;;;;4.10;1.42;;;;;;;;;;5029004;28;20038;-43
2021/05/08 01:06:00;;;;;;;4.22;1.67;;;;;;;;;;5029645;28;20049;-43
2021/05/08 01:08:26;;;;;;;2.17;1.83;;;;;;;;;;5019348;28;20092;-44
2021/05/08 01:10:53;;;;;;;3.55;2.33;;;;;;;;;;5024479;28;20417;-44
2021/05/08 01:13:19;;;;;;;4.28;1.85;;;;;;;;;;5028631;28;20045;-43
2021/05/08 01:15:46;;;;;;;3.85;1.40;;;;;;;;;;5030295;28;20064;-42
2021/05/08 01:18:12;;;;;;;2.90;1.73;;;;;;;;;;5030286;28;20068;-43
2021/05/08 01:20:41;;;;;;;4.80;1.88;;;;;;;;;;5030244;28;20129;-44
2021/05/08 01:23:07;;;;;;;3.38;1.70;;;;;;;;;;5029579;28;20037;-44
2021/05/08 01:25:34;;;;;;;4.32;1.67;;;;;;;;;;5022856;28;23998;-44
2021/05/08 01:28:01;;;;;;;4.15;1.88;;;;;;;;;;5030015;28;20488;-44
2021/05/08 01:30:29;;;;;;;3.08;1.70;;;;;;;;;;5029944;28;20494;-42
2021/05/08 01:32:56;;;;;;;11.18;5.10;;;;;;;;;;5030034;28;20049;-46
2021/05/08 01:35:23;;;;;;;13.73;4.15;;;;;;;;;;5029263;28;20026;-45
2021/05/08 01:37:49;;;;;;;4.97;2.55;;;;;;;;;;5029114;28;20716;-42
2021/05/08 01:40:16;;;;;;;3.95;2.17;;;;;;;;;;5028718;28;20472;-44
2021/05/08 01:42:43;;;;;;;5.90;1.67;;;;;;;;;;5028524;28;20482;-42
2021/05/08 01:45:10;;;;;;;3.00;1.63;;;;;;;;;;5029273;28;20038;-45
2021/05/08 01:47:37;;;;;;;2.03;1.88;;;;;;;;;;5024413;28;20120;-44
2021/05/08 01:50:04;;;;;;;4.18;1.90;;;;;;;;;;5025889;28;20490;-43
2021/05/08 01:52:30;;;;;;;2.35;1.60;;;;;;;;;;5029220;28;20042;-43
2021/05/08 01:54:57;;;;;;;2.33;1.63;;;;;;;;;;5028253;28;20037;-42
2021/05/08 01:57:23;;;;;;;1.45;1.35;;;;;;;;;;5027143;28;20045;-44
2021/05/08 01:59:49;;;;;;;1.80;1.40;;;;;;;;;;5025889;28;20041;-42
2021/05/08 02:02:15;;;;;;;2.70;1.27;;;;;;;;;;5015812;28;20034;-45
2021/05/08 02:04:42;;;;;;;3.50;1.30;;;;;;;;;;5021756;28;20690;-42
2021/05/08 02:07:08;;;;;;;2.30;1.60;;;;;;;;;;5027000;28;20713;-42
2021/05/08 02:09:34;;;;;;;1.95;1.80;;;;;;;;;;5029588;28;20129;-42
2021/05/08 02:12:00;;;;;;;1.98;1.35;;;;;;;;;;5024707;28;20046;-43
2021/05/08 02:14:26;;;;;;;1.90;1.52;;;;;;;;;;5024434;28;20042;-42
2021/05/08 02:16:53;;;;;;;2.08;1.90;;;;;;;;;;5024598;28;20391;-43
2021/05/08 02:19:19;;;;;;;1.38;1.33;;;;;;;;;;5020535;28;20030;-45
2021/05/08 02:21:45;;;;;;;3.00;1.60;;;;;;;;;;5029868;28;20125;-42
2021/05/08 02:24:11;;;;;;;4.30;1.98;;;;;;;;;;5028927;28;20037;-42
2021/05/08 02:26:37;;;;;;;2.28;1.50;;;;;;;;;;5028937;28;20061;-43
2021/05/08 02:29:04;;;;;;;3.72;1.67;;;;;;;;;;5025254;28;20473;-45
2021/05/08 02:31:30;;;;;;;4.07;2.35;;;;;;;;;;5022997;28;20040;-43
2021/05/08 02:33:57;;;;;;;1.58;1.48;;;;;;;;;;5020536;28;20593;-44
2021/05/08 02:36:23;;;;;;;6.78;2.03;;;;;;;;;;5026409;28;20107;-43
2021/05/08 02:38:49;;;;;;;3.55;1.80;;;;;;;;;;5028671;28;20028;-43
2021/05/08 02:41:16;;;;;;;3.85;2.55;;;;;;;;;;5029809;28;20367;-42
2021/05/08 02:43:42;;;;;;;10.48;3.00;;;;;;;;;;5027166;28;20145;-44
2021/05/08 02:46:08;;;;;;;1.67;1.60;;;;;;;;;;5021286;28;20096;-43
2021/05/08 02:48:34;;;;;;;1.77;1.63;;;;;;;;;;5023465;28;20141;-42
2021/05/08 02:51:00;;;;;;;2.95;1.67;;;;;;;;;;5027806;28;20580;-43
2021/05/08 02:53:27;;;;;;;2.13;1.92;;;;;;;;;;5016049;28;20042;-43
2021/05/08 02:55:53;;;;;;;5.15;1.83;;;;;;;;;;5027960;28;20034;-45
2021/05/08 02:58:19;;;;;;;3.75;1.50;;;;;;;;;;5011657;28;20036;-42
2021/05/08 03:00:45;;;;;;;3.63;2.00;;;;;;;;;;5027357;28;20039;-42
2021/05/08 03:03:11;;;;;;;3.03;1.58;;;;;;;;;;5027299;28;20383;-43
2021/05/08 03:05:37;;;;;;;2.45;1.88;;;;;;;;;;5016421;28;20050;-43
2021/05/08 03:08:04;;;;;;;2.70;1.95;;;;;;;;;;5027087;28;20034;-43
2021/05/08 03:10:30;;;;;;;2.78;1.90;;;;;;;;;;5029269;28;20069;-43
2021/05/08 03:12:56;;;;;;;2.38;2.13;;;;;;;;;;5028635;28;20509;-45
2021/05/08 03:15:26;;;;;;;4.93;2.17;;;;;;;;;;5027962;28;20129;-42
2021/05/08 03:17:52;;;;;;;2.20;1.60;;;;;;;;;;5027415;28;20037;-42
2021/05/08 03:20:19;;;;;;;4.75;2.80;;;;;;;;;;5025777;28;20044;-43
2021/05/08 03:22:46;;;;;;;2.53;2.42;;;;;;;;;;5026979;28;20541;-43
2021/05/08 03:25:12;;;;;;;2.25;1.90;;;;;;;;;;5029620;28;20046;-45
2021/05/08 03:27:38;;;;;;;3.00;2.38;;;;;;;;;;5032772;28;20037;-44
2021/05/08 03:30:05;;;;;;;2.40;1.75;;;;;;;;;;5033376;28;20374;-46
2021/05/08 03:32:32;;;;;;;4.13;2.47;;;;;;;;;;5031698;28;20040;-43
2021/05/08 03:34:58;;;;;;;3.50;2.72;;;;;;;;;;5031657;28;20041;-44
2021/05/08 03:37:25;;;;;;;2.50;2.28;;;;;;;;;;5032052;28;20033;-45
2021/05/08 03:39:52;;;;;;;2.40;2.05;;;;;;;;;;5032966;28;20045;-44
2021/05/08 03:42:19;;;;;;;2.25;2.05;;;;;;;;;;5029060;28;20053;-43
2021/05/08 03:44:45;;;;;;;1.70;1.60;;;;;;;;;;5031223;28;20099;-42
2021/05/08 03:47:11;;;;;;;2.30;2.10;;;;;;;;;;5023480;28;20038;-43
2021/05/08 03:49:38;;;;;;;2.08;2.08;;;;;;;;;;5032693;28;20056;-45
2021/05/08 03:52:05;;;;;;;2.00;1.90;;;;;;;;;;5030001;28;20083;-43
2021/05/08 03:54:31;;;;;;;3.63;2.08;;;;;;;;;;5033410;28;20036;-43
2021/05/08 03:56:59;;;;;;;2.80;2.58;;;;;;;;;;5029566;28;20045;-46
2021/05/08 03:59:26;;;;;;;2.33;2.20;;;;;;;;;;5029054;28;20065;-44
2021/05/08 04:01:52;;;;;;;3.40;2.42;;;;;;;;;;5023607;28;20374;-44
2021/05/08 04:04:18;;;;;;;2.45;2.25;;;;;;;;;;5031712;28;20103;-42
2021/05/08 04:06:45;;;;;;;2.05;2.00;;;;;;;;;;5025497;28;20095;-47
2021/05/08 04:09:11;;;;;;;4.50;2.55;;;;;;;;;;5026755;28;20056;-43
2021/05/08 04:11:38;;;;;;;2.03;1.80;;;;;;;;;;5019515;28;20116;-42
2021/05/08 04:14:04;;;;;;;3.72;2.35;;;;;;;;;;5032104;28;20044;-43
2021/05/08 04:16:33;;;;;;;3.42;2.08;;;;;;;;;;5027725;28;20037;-44
2021/05/08 04:19:01;;;;;;;2.13;1.98;;;;;;;;;;5017020;28;20116;-43
2021/05/08 04:21:27;;;;;;;2.30;2.20;;;;;;;;;;5024863;28;20042;-44
2021/05/08 04:23:53;;;;;;;2.35;2.25;;;;;;;;;;5020779;28;20056;-43
2021/05/08 04:26:20;;;;;;;2.97;2.05;;;;;;;;;;5032998;28;20046;-44
2021/05/08 04:28:46;;;;;;;2.00;1.60;;;;;;;;;;5029326;28;20029;-43
2021/05/08 04:31:13;;;;;;;2.35;2.20;;;;;;;;;;5018108;28;20064;-42
2021/05/08 04:33:39;;;;;;;2.22;2.13;;;;;;;;;;5031933;28;20037;-43
2021/05/08 04:36:06;;;;;;;2.53;2.40;;;;;;;;;;5029043;28;20124;-43
2021/05/08 04:38:32;;;;;;;2.20;2.10;;;;;;;;;;5032107;28;20045;-44
2021/05/08 04:40:59;;;;;;;6.70;2.72;;;;;;;;;;5028073;28;20413;-44
2021/05/08 04:43:25;;;;;;;4.45;2.25;;;;;;;;;;5030997;28;20379;-43
2021/05/08 04:45:51;;;;;;;2.33;2.13;;;;;;;;;;5030735;28;20045;-44
2021/05/08 04:48:20;;;;;;;6.47;2.67;;;;;;;;;;5029081;28;20045;-44
2021/05/08 04:50:46;;;;;;;3.63;2.13;;;;;;;;;;5032062;28;20096;-43
2021/05/08 04:53:13;;;;;;;2.80;2.70;;;;;;;;;;5028912;28;20128;-44
2021/05/08 04:55:39;;;;;;;3.05;2.78;;;;;;;;;;5031949;28;20669;-43
2021/05/08 04:58:06;;;;;;;5.00;2.45;;;;;;;;;;5024350;28;20075;-42
2021/05/08 05:00:32;;;;;;;3.92;2.28;;;;;;;;;;5030173;28;20045;-43
2021/05/08 05:02:59;;;;;;;2.65;2.45;;;;;;;;;;5014507;28;20038;-43
2021/05/08 05:05:25;;;;;;;2.70;2.60;;;;;;;;;;5025612;28;20050;-44
2021/05/08 05:07:52;;;;;;;5.13;3.15;;;;;;;;;;5027570;28;20064;-42
2021/05/08 05:10:18;;;;;;;6.35;3.53;;;;;;;;;;5031485;28;20041;-42
2021/05/08 05:12:45;;;;;;;3.63;3.42;;;;;;;;;;5025483;28;20046;-46
2021/05/08 05:15:11;;;;;;;3.50;3.20;;;;;;;;;;5029959;28;20058;-47
2021/05/08 05:17:38;;;;;;;4.25;3.25;;;;;;;;;;5029818;28;20385;-46
2021/05/08 05:20:05;;;;;;;3.67;2.72;;;;;;;;;;5029108;28;20050;-43
2021/05/08 05:22:31;;;;;;;4.32;2.85;;;;;;;;;;5019925;28;20053;-42
2021/05/08 05:24:57;;;;;;;7.45;2.70;;;;;;;;;;5024105;28;20029;-43
2021/05/08 05:27:24;;;;;;;2.88;1.90;;;;;;;;;;5030434;28;20044;-43
2021/05/08 05:29:51;;;;;;;2.42;2.20;;;;;;;;;;5029470;28;20045;-43
2021/05/08 05:32:18;;;;;;;5.32;2.25;;;;;;;;;;5025220;28;20121;-43
2021/05/08 05:34:44;;;;;;;3.75;2.25;;;;;;;;;;5031307;28;20401;-45
2021/05/08 05:37:10;;;;;;;4.88;1.92;;;;;;;;;;5027232;28;20042;-44
2021/05/08 05:39:37;;;;;;;2.38;1.85;;;;;;;;;;5013966;28;20065;-44
2021/05/08 05:42:03;;;;;;;3.28;2.42;;;;;;;;;;5022338;28;20034;-45
2021/05/08 05:44:30;;;;;;;3.38;3.08;;;;;;;;;;5018066;28;20048;-44
2021/05/08 05:46:56;;;;;;;3.00;2.65;;;;;;;;;;5029107;28;20152;-45
2021/05/08 05:49:22;;;;;;;3.13;2.10;;;;;;;;;;5025417;28;20111;-43
2021/05/08 05:51:49;;;;;;;2.85;2.65;;;;;;;;;;5023322;28;20065;-44
2021/05/08 05:54:20;;;;;;;2.38;2.20;;;;;;;;;;5021999;28;20077;-43
2021/05/08 05:56:46;;;;;;;2.30;1.80;;;;;;;;;;5020131;28;20095;-43
2021/05/08 05:59:12;;;;;;;2.83;1.88;;;;;;;;;;5031247;28;20033;-44
2021/05/08 06:01:38;;;;;;;4.10;2.67;;;;;;;;;;5027918;28;20041;-44
2021/05/08 06:04:05;;;;;;;3.95;3.70;;;;;;;;;;5030768;28;20124;-42
2021/05/08 06:06:33;;;;;;;3.05;2.67;;;;;;;;;;5030277;28;20163;-45
2021/05/08 06:08:59;;;;;;;3.78;3.53;;;;;;;;;;5027842;28;20121;-43
2021/05/08 06:11:26;;;;;;;6.30;2.40;;;;;;;;;;5030051;28;20413;-43
2021/05/08 06:13:52;;;;;;;2.47;2.17;;;;;;;;;;5026615;28;20425;-42
2021/05/08 06:16:18;;;;;;;5.03;4.65;;;;;;;;;;5030418;28;20116;-44
2021/05/08 06:18:45;;;;;;;2.10;1.30;;;;;;;;;;5019783;28;20500;-45
2021/05/08 06:21:11;;;;;;;1.83;1.27;;;;;;;;;;5027751;28;20040;-45
2021/05/08 06:23:38;;;;;;;1.27;1.25;;;;;;;;;;5032805;28;20111;-43
2021/05/08 06:26:04;;;;;;;9.15;1.58;;;;;;;;;;5024837;28;20046;-44
2021/05/08 06:28:30;;;;;;;2.95;1.67;;;;;;;;;;5014004;28;20045;-44
2021/05/08 06:30:56;;;;;;;2.45;1.40;;;;;;;;;;5030008;28;20042;-44
2021/05/08 06:33:24;;;;;;;2.85;1.10;;;;;;;;;;5029192;28;20038;-43
2021/05/08 06:35:51;;;;;;;1.33;1.20;;;;;;;;;;5011596;28;20042;-43
2021/05/08 06:38:17;;;;;;;2.22;1.38;;;;;;;;;;5024884;28;20117;-42
2021/05/08 06:40:44;;;;;;;2.58;1.42;;;;;;;;;;5019353;28;20050;-43
2021/05/08 06:43:10;;;;;;;1.77;1.67;;;;;;;;;;5017326;28;20057;-43
2021/05/08 06:45:37;;;;;;;3.00;1.27;;;;;;;;;;5022652;28;20042;-42
2021/05/08 06:48:03;;;;;;;4.28;1.50;;;;;;;;;;5029380;28;20041;-42
2021/05/08 06:50:29;;;;;;;5.57;1.10;;;;;;;;;;5023019;28;20053;-41
2021/05/08 06:52:56;;;;;;;5.13;1.15;;;;;;;;;;5016644;28;20033;-43
2021/05/08 06:55:22;;;;;;;2.42;1.23;;;;;;;;;;5017781;28;20117;-42
2021/05/08 06:57:49;;;;;;;2.65;1.30;;;;;;;;;;5019067;28;20053;-45
2021/05/08 07:00:16;;;;;;;1.80;1.00;;;;;;;;;;5028355;28;20038;-43
2021/05/08 07:02:43;;;;;;;2.58;0.98;;;;;;;;;;5022792;28;20046;-45
2021/05/08 07:05:09;;;;;;;4.70;1.20;;;;;;;;;;5022039;28;20148;-45
2021/05/08 07:07:35;;;;;;;1.92;1.00;;;;;;;;;;5029811;28;20555;-42
2021/05/08 07:10:03;;;;;;;1.50;0.98;;;;;;;;;;5026437;28;20120;-44
2021/05/08 07:12:29;;;;;;;2.70;0.90;;;;;;;;;;5028473;28;20056;-47
2021/05/08 07:14:56;;;;;;;1.20;0.90;;;;;;;;;;5021271;28;20042;-44
2021/05/08 07:17:22;;;;;;;4.00;1.00;;;;;;;;;;5018132;28;20040;-44
2021/05/08 07:19:49;;;;;;;2.25;0.95;;;;;;;;;;5028043;28;20037;-43
2021/05/08 07:22:16;;;;;;;6.57;1.88;;;;;;;;;;5026286;28;20041;-43
2021/05/08 07:24:42;;;;;;;12.52;2.78;;;;;;;;;;5013122;28;20250;-44
2021/05/08 07:27:09;;;;;;;1.08;1.00;;;;;;;;;;5027308;28;20103;-43
2021/05/08 07:29:36;;;;;;;3.28;0.98;;;;;;;;;;5027275;28;20667;-46
2021/05/08 07:32:03;;;;;;;1.52;1.10;;;;;;;;;;5028939;28;20038;-44
2021/05/08 07:34:29;;;;;;;3.45;1.08;;;;;;;;;;5025576;28;20530;-45
2021/05/08 07:36:55;;;;;;;2.22;1.15;;;;;;;;;;5027448;28;20038;-45
2021/05/08 07:39:22;;;;;;;1.70;0.90;;;;;;;;;;5026180;28;20042;-44
2021/05/08 07:41:48;;;;;;;2.70;0.93;;;;;;;;;;5026771;28;20427;-44
2021/05/08 07:44:14;;;;;;;1.63;0.88;;;;;;;;;;5028139;28;20096;-44
2021/05/08 07:46:40;;;;;;;3.50;0.90;;;;;;;;;;5026013;28;20056;-43
2021/05/08 07:49:07;;;;;;;2.67;1.00;;;;;;;;;;5026980;28;20135;-43
2021/05/08 07:51:33;;;;;;;2.17;1.00;;;;;;;;;;5027394;28;20136;-43
2021/05/08 07:54:03;;;;;;;1.55;0.90;;;;;;;;;;5027882;28;20474;-43
2021/05/08 07:56:32;;;;;;;1.30;0.80;;;;;;;;;;5012634;28;20053;-44
2021/05/08 07:58:58;;;;;;;4.45;0.90;;;;;;;;;;5026818;28;20070;-43
2021/05/08 08:01:24;;;;;;;2.38;1.08;;;;;;;;;;5026860;28;20041;-43
2021/05/08 08:03:51;;;;;;;1.15;0.90;;;;;;;;;;5028556;28;20116;-43
2021/05/08 08:06:17;;;;;;;2.38;0.90;;;;;;;;;;5024487;28;20049;-44
2021/05/08 08:08:44;;;;;;;1.75;0.80;;;;;;;;;;5027730;28;20042;-43
2021/05/08 08:11:10;;;;;;;1.00;0.90;;;;;;;;;;5023065;28;20562;-43
2021/05/08 08:13:40;;;;;;;2.40;0.95;;;;;;;;;;5018994;28;20053;-44
2021/05/08 08:16:06;;;;;;;0.95;0.80;;;;;;;;;;5032309;28;20072;-46
2021/05/08 08:18:32;;;;;;;0.80;0.80;;;;;;;;;;5031057;28;20039;-43
2021/05/08 08:20:59;;;;;;;1.55;1.33;;;;;;;;;;5023308;28;20077;-45
2021/05/08 08:23:25;;;;;;;1.50;0.73;;;;;;;;;;5032790;28;20068;-43
2021/05/08 08:25:51;;;;;;;0.85;0.85;;;;;;;;;;5031355;28;20044;-44
2021/05/08 08:28:18;;;;;;;2.08;1.10;;;;;;;;;;5032539;28;20073;-43
2021/05/08 08:30:44;;;;;;;0.80;0.80;;;;;;;;;;5030838;28;20037;-45
2021/05/08 08:33:10;;;;;;;1.38;0.80;;;;;;;;;;5032005;28;20033;-44
2021/05/08 08:35:37;;;;;;;1.30;0.90;;;;;;;;;;5024266;28;20080;-46
2021/05/08 08:38:03;;;;;;;0.85;0.85;;;;;;;;;;5021397;28;20086;-43
2021/05/08 08:40:30;;;;;;;1.50;0.90;;;;;;;;;;5028411;28;20039;-43
2021/05/08 08:42:56;;;;;;;1.13;1.13;;;;;;;;;;5026767;28;20049;-43
2021/05/08 08:45:22;;;;;;;0.90;0.90;;;;;;;;;;5016428;28;20056;-44
2021/05/08 08:47:48;;;;;;;1.95;0.80;;;;;;;;;;5023511;28;20085;-43
2021/05/08 08:50:19;;;;;;;1.00;1.00;;;;;;;;;;5023284;28;20516;-45
2021/05/08 08:52:45;;;;;;;1.48;0.80;;;;;;;;;;5022417;28;20038;-47
2021/05/08 08:55:11;;;;;;;0.70;0.70;;;;;;;;;;5027199;28;20482;-43
2021/05/08 08:57:43;;;;;;;10.73;1.23;;;;;;;;;;5029433;28;20038;-43
2021/05/08 09:00:14;;;;;;;7.78;1.23;;;;;;;;;;5020008;28;20050;-44
2021/05/08 09:02:42;;;;;;;0.73;0.73;;;;;;;;;;5023471;28;20457;-44
2021/05/08 09:05:09;;;;;;;1.73;0.80;;;;;;;;;;5032094;28;20135;-44
2021/05/08 09:07:38;;;;;;;3.70;0.85;;;;;;;;;;5029032;28;20034;-46
2021/05/08 09:10:05;;;;;;;1.10;0.70;;;;;;;;;;5028980;28;20110;-45
2021/05/08 09:12:43;;;;;;;0.70;0.70;;;;;;;;;;5031727;28;20048;-44
2021/05/08 09:15:11;;;;;;;0.70;0.70;;;;;;;;;;5028545;28;20543;-48
2021/05/08 09:17:42;;;;;;;2.33;0.70;;;;;;;;;;5014391;28;20508;-45
2021/05/08 09:20:10;;;;;;;0.70;0.70;;;;;;;;;;5020979;28;20038;-45
2021/05/08 09:22:37;;;;;;;1.67;0.70;;;;;;;;;;5025157;28;20040;-47
2021/05/08 09:25:15;;;;;;;0.70;0.70;;;;;;;;;;5030145;28;20038;-44
2021/05/08 09:27:44;;;;;;;1.05;0.70;;;;;;;;;;5029065;28;20037;-48
2021/05/08 09:30:13;;;;;;;0.68;0.68;;;;;;;;;;5030713;28;20038;-48
2021/05/08 09:32:43;;;;;;;0.70;0.70;;;;;;;;;;5018653;28;20132;-46
2021/05/08 09:35:11;;;;;;;9.75;0.95;;;;;;;;;;5025703;28;20065;-44
2021/05/08 09:37:38;;;;;;;4.22;0.82;;;;;;;;;;5016940;28;20038;-45
2021/05/08 09:40:18;;;;;;;0.70;0.70;;;;;;;;;;5026938;28;20033;-44
2021/05/08 09:42:45;;;;;;;0.70;0.70;;;;;;;;;;5020456;28;20478;-45
2021/05/08 09:45:13;;;;;;;0.70;0.70;;;;;;;;;;5030580;28;20072;-45
2021/05/08 09:47:40;;;;;;;0.60;0.60;;;;;;;;;;5030069;28;20041;-44
2021/05/08 09:50:07;;;;;;;0.60;0.60;;;;;;;;;;5028656;28;20045;-45
2021/05/08 09:52:40;;;;;;;0.70;0.70;;;;;;;;;;5029943;28;20072;-43
2021/05/08 09:55:06;;;;;;;1.42;0.75;;;;;;;;;;5029786;28;20049;-43
2021/05/08 09:57:33;;;;;;;0.60;0.60;;;;;;;;;;5029924;28;20641;-44
2021/05/08 09:59:59;;;;;;;0.70;0.70;;;;;;;;;;5030451;28;20037;-44
2021/05/08 10:02:25;;;;;;;0.75;0.60;;;;;;;;;;5029795;28;20049;-44
2021/05/08 10:05:12;;;;;;;0.70;0.70;;;;;;;;;;5029414;28;20567;-44
2021/05/08 10:07:38;;;;;;;1.90;0.60;;;;;;;;;;5021937;28;20069;-45
2021/05/08 10:10:05;;;;;;;0.60;0.60;;;;;;;;;;5026625;28;20030;-44
2021/05/08 10:12:31;;;;;;;0.52;0.52;;;;;;;;;;5025851;28;20041;-44
2021/05/08 10:14:58;;;;;;;0.50;0.50;;;;;;;;;;5027996;28;20053;-44
2021/05/08 10:17:26;;;;;;;0.98;0.60;;;;;;;;;;5031915;28;20053;-47
2021/05/08 10:20:00;;;;;;;1.23;0.60;;;;;;;;;;5024844;28;20033;-45
2021/05/08 10:22:26;;;;;;;;;;;;;;;;;;5020442;28;20259;-44
2021/05/08 10:24:53;;;;;;;0.75;0.50;;;;;;;;;;5029440;28;19928;-45
2021/05/08 10:27:19;;;;;;;0.85;0.52;;;;;;;;;;5027456;28;20053;-47
2021/05/08 10:29:47;;;;;;;1.35;0.60;;;;;;;;;;5030668;28;20084;-46
2021/05/08 10:32:18;;;;;;;3.67;1.25;;;;;;;;;;5026438;28;20068;-45
2021/05/08 10:34:50;;;;;;;0.60;0.60;;;;;;;;;;5019271;28;20049;-46
2021/05/08 10:37:17;;;;;;;0.60;0.60;;;;;;;;;;5029267;28;20042;-47
2021/05/08 10:40:05;;;;;;;0.70;0.70;;;;;;;;;;5022353;28;20045;-45
2021/05/08 10:42:40;;;;;;;1.13;0.60;;;;;;;;;;5027905;28;20045;-46
2021/05/08 10:45:15;;;;;;;2.05;0.52;;;;;;;;;;5026804;28;20049;-45
2021/05/08 10:47:58;;;;;;;0.80;0.50;;;;;;;;;;5021598;28;20128;-47
2021/05/08 10:50:24;;;;;;;;;;;;;;;;;;5031378;28;20065;-46
2021/05/08 10:53:03;;;;;;;1.48;0.60;;;;;;;;;;5026476;28;20000;-45
2021/05/08 10:55:30;;;;;;;0.60;0.60;;;;;;;;;;5022830;28;20045;-48
2021/05/08 10:58:20;;;;;;;0.60;0.60;;;;;;;;;;5025519;28;20029;-45
2021/05/08 11:00:47;;;;;;;0.50;0.50;;;;;;;;;;5026136;28;20030;-45
2021/05/08 11:03:14;;;;;;;0.55;0.55;;;;;;;;;;5013725;28;20117;-45
2021/05/08 11:05:50;;;;;;;0.65;0.60;;;;;;;;;;5028912;28;20104;-45
2021/05/08 11:08:26;;;;;;;1.27;0.50;;;;;;;;;;5022500;28;20710;-46
2021/05/08 11:10:53;;;;;;;1.20;0.60;;;;;;;;;;5029512;28;20045;-43
2021/05/08 11:13:21;;;;;;;0.60;0.60;;;;;;;;;;5021352;28;20061;-48
2021/05/08 11:18:32;;;;;;;3.22;0.63;;;;;;;;;;5030017;28;20045;-45
2021/05/08 11:21:02;;;;;;;0.90;0.50;;;;;;;;;;5026173;28;20044;-47
2021/05/08 11:23:47;;;;;;;1.05;0.57;;;;;;;;;;5027053;28;20038;-43
2021/05/08 11:26:29;;;;;;;0.60;0.60;;;;;;;;;;5021495;28;20042;-45
2021/05/08 11:29:09;;;;;;;0.50;0.50;;;;;;;;;;5024657;28;20036;-45
2021/05/08 11:31:39;;;;;;;0.50;0.50;;;;;;;;;;5027023;28;20054;-45
2021/05/08 11:34:05;;;;;;;0.50;0.50;;;;;;;;;;5028314;28;20140;-44
2021/05/08 11:36:31;;;;;;;3.45;0.50;;;;;;;;;;5027916;28;20393;-44
2021/05/08 11:39:11;;;;;;;1.10;0.50;;;;;;;;;;5029564;28;20514;-46
2021/05/08 11:41:37;;;;;;;0.50;0.50;;;;;;;;;;5022039;28;20030;-43
2021/05/08 11:44:04;;;;;;;1.35;0.63;;;;;;;;;;5017133;28;20053;-44
2021/05/08 11:46:32;;;;;;;1.17;0.50;;;;;;;;;;5031888;28;20486;-45
2021/05/08 11:48:58;;;;;;;0.57;0.50;;;;;;;;;;5030578;28;20076;-44
2021/05/08 11:51:24;;;;;;;4.15;0.60;;;;;;;;;;5014927;28;20042;-45
2021/05/08 11:54:13;;;;;;;0.60;0.60;;;;;;;;;;5032562;28;20124;-46
2021/05/08 11:56:39;;;;;;;1.40;0.50;;;;;;;;;;5032594;28;20052;-44
2021/05/08 11:59:07;;;;;;;0.50;0.50;;;;;;;;;;5032985;28;20037;-45
2021/05/08 12:01:36;;;;;;;0.82;0.50;;;;;;;;;;5030679;28;20052;-44
2021/05/08 12:04:05;;;;;;;3.33;0.50;;;;;;;;;;5031906;28;20429;-46
2021/05/08 12:06:32;;;;;;;0.60;0.57;;;;;;;;;;5021302;28;20042;-43
2021/05/08 12:09:09;;;;;;;0.75;0.50;;;;;;;;;;5026489;28;20045;-44
2021/05/08 12:11:36;;;;;;;0.85;0.50;;;;;;;;;;5016181;28;20525;-45
2021/05/08 12:14:13;;;;;;;1.20;0.50;;;;;;;;;;5032043;28;20100;-45
2021/05/08 12:16:40;;;;;;;1.23;0.50;;;;;;;;;;5031185;28;20133;-45
2021/05/08 12:19:06;;;;;;;1.75;0.45;;;;;;;;;;5018734;28;20038;-44
2021/05/08 12:21:33;;;;;;;0.50;0.50;;;;;;;;;;5030057;28;20076;-46
2021/05/08 12:24:00;;;;;;;2.15;0.50;;;;;;;;;;5024515;28;20067;-44
2021/05/08 12:26:26;;;;;;;0.50;0.50;;;;;;;;;;5022811;28;20065;-43
2021/05/08 12:28:54;;;;;;;0.40;0.40;;;;;;;;;;5027641;28;20087;-47
2021/05/08 12:31:20;;;;;;;0.55;0.50;;;;;;;;;;5027523;28;20396;-45
2021/05/08 12:33:46;;;;;;;0.50;0.50;;;;;;;;;;5026193;28;20042;-44
2021/05/08 12:36:17;;;;;;;0.73;0.50;;;;;;;;;;5017815;28;21301;-44
2021/05/08 12:38:43;;;;;;;0.50;0.50;;;;;;;;;;5031459;28;20669;-44
2021/05/08 12:41:23;;;;;;;0.50;0.50;;;;;;;;;;5030952;28;20363;-43
2021/05/08 12:43:49;;;;;;;0.63;0.40;;;;;;;;;;5015393;28;20033;-44
2021/05/08 12:46:16;;;;;;;0.40;0.40;;;;;;;;;;5024043;28;20042;-46
2021/05/08 12:48:45;;;;;;;0.70;0.50;;;;;;;;;;5019554;28;20073;-44
2021/05/08 12:51:30;;;;;;;1.92;0.50;;;;;;;;;;5031969;28;20088;-46
2021/05/08 12:54:15;;;;;;;0.50;0.50;;;;;;;;;;5028308;28;20517;-44
2021/05/08 12:56:41;;;;;;;0.50;0.50;;;;;;;;;;5030377;28;20044;-46
2021/05/08 12:59:08;;;;;;;1.42;0.50;;;;;;;;;;5030010;28;20060;-45
2021/05/08 13:01:39;;;;;;;0.52;0.50;;;;;;;;;;5029759;28;20037;-44
2021/05/08 13:04:05;;;;;;;0.93;0.60;;;;;;;;;;5031413;28;20087;-45
2021/05/08 13:06:31;;;;;;;0.50;0.50;;;;;;;;;;5030961;28;20653;-43
2021/05/08 13:08:57;;;;;;;0.70;0.70;;;;;;;;;;5026999;28;20432;-44
2021/05/08 13:11:36;;;;;;;2.40;0.52;;;;;;;;;;5024533;28;20080;-46
2021/05/08 13:14:21;;;;;;;1.17;0.50;;;;;;;;;;5029068;28;20537;-44
2021/05/08 13:16:49;;;;;;;3.22;0.60;;;;;;;;;;5029157;28;20048;-44
2021/05/08 13:19:17;;;;;;;0.50;0.50;;;;;;;;;;5030803;28;20045;-44
2021/05/08 13:21:47;;;;;;;0.50;0.50;;;;;;;;;;5029070;28;20034;-46
2021/05/08 13:24:13;;;;;;;0.70;0.50;;;;;;;;;;5014105;28;20132;-44
2021/05/08 13:26:40;;;;;;;2.67;0.50;;;;;;;;;;5025744;28;20551;-44
2021/05/08 13:29:06;;;;;;;0.82;0.55;;;;;;;;;;5030388;28;20069;-43
2021/05/08 13:31:33;;;;;;;0.60;0.60;;;;;;;;;;5031885;28;20383;-44
2021/05/08 13:34:00;;;;;;;1.20;0.60;;;;;;;;;;5028816;28;20045;-43
2021/05/08 13:36:26;;;;;;;1.25;0.50;;;;;;;;;;5029091;28;20040;-46
2021/05/08 13:38:53;;;;;;;0.50;0.50;;;;;;;;;;5023203;28;20566;-44
2021/05/08 13:41:19;;;;;;;0.70;0.50;;;;;;;;;;5027376;28;20485;-45
2021/05/08 13:43:45;;;;;;;0.60;0.60;;;;;;;;;;5027379;28;20052;-46
2021/05/08 13:46:12;;;;;;;0.75;0.60;;;;;;;;;;5029309;28;20038;-45
2021/05/08 13:48:38;;;;;;;1.65;0.50;;;;;;;;;;5028825;28;20406;-45
2021/05/08 13:51:05;;;;;;;0.50;0.50;;;;;;;;;;5030112;28;20056;-43
2021/05/08 13:53:31;;;;;;;2.55;0.60;;;;;;;;;;5025889;28;20623;-44
2021/05/08 13:55:57;;;;;;;0.60;0.50;;;;;;;;;;5021433;28;20034;-44
2021/05/08 13:58:24;;;;;;;0.50;0.50;;;;;;;;;;5026807;28;20049;-44
2021/05/08 14:00:50;;;;;;;1.85;0.50;;;;;;;;;;5028727;28;20037;-46
2021/05/08 14:03:17;;;;;;;2.25;0.47;;;;;;;;;;5029156;28;20479;-44
2021/05/08 14:05:44;;;;;;;1.48;0.50;;;;;;;;;;5028950;28;20041;-45
2021/05/08 14:08:10;;;;;;;0.82;0.50;;;;;;;;;;5029160;28;20037;-44
2021/05/08 14:10:37;;;;;;;0.75;0.40;;;;;;;;;;5025772;28;20034;-44
2021/05/08 14:13:03;;;;;;;2.47;0.52;;;;;;;;;;5024578;28;20107;-45
2021/05/08 14:15:29;;;;;;;0.45;0.40;;;;;;;;;;5030439;28;20033;-47
2021/05/08 14:17:56;;;;;;;2.55;0.50;;;;;;;;;;5026824;28;20473;-45
2021/05/08 14:20:22;;;;;;;1.17;0.47;;;;;;;;;;5025755;28;20104;-44
2021/05/08 14:22:48;;;;;;;0.88;0.60;;;;;;;;;;5025154;28;20045;-43
2021/05/08 14:25:15;;;;;;;0.77;0.57;;;;;;;;;;5026446;28;20175;-44
2021/05/08 14:27:41;;;;;;;0.50;0.50;;;;;;;;;;5030361;28;20065;-45
2021/05/08 14:30:11;;;;;;;1.30;0.68;;;;;;;;;;5027031;28;20048;-44
2021/05/08 14:32:42;;;;;;;2.45;0.50;;;;;;;;;;5026990;28;20057;-46
2021/05/08 14:35:08;;;;;;;0.55;0.50;;;;;;;;;;5022355;28;20048;-43
2021/05/08 14:37:35;;;;;;;0.50;0.50;;;;;;;;;;5021150;28;20519;-45
2021/05/08 14:40:01;;;;;;;0.85;0.52;;;;;;;;;;5025714;28;20059;-43
2021/05/08 14:42:28;;;;;;;1.67;0.50;;;;;;;;;;5026192;28;20046;-46
2021/05/08 14:44:54;;;;;;;2.25;0.50;;;;;;;;;;5022020;28;20129;-45
2021/05/08 14:47:20;;;;;;;0.60;0.60;;;;;;;;;;5022765;28;20042;-47